sensor_id;sensor_type;location;lat;lon;timestamp;P1;durP1;ratioP1;P2;durP2;ratioP2
7375;SDS011;3728;42.266;24.944;2023-11-19T00:00:14;1.20;;;1.00;;
7375;SDS011;3728;42.266;24.944;2023-11-19T00:02:42;1.30;;;1.20;;
7375;SDS011;3728;42.266;24.944;2023-11-19T00:05:10;1.10;;;1.10;;
7375;SDS011;3728;42.266;24.944;2023-11-19T00:07:39;1.07;;;1.07;;
7375;SDS011;3728;42.266;24.944;2023-11-19T00:10:11;2.97;;;2.43;;
7375;SDS011;3728;42.266;24.944;2023-11-19T00:12:41;1.67;;;1.27;;
7375;SDS011;3728;42.266;24.944;2023-11-19T00:15:11;1.37;;;1.27;;
7375;SDS011;3728;42.266;24.944;2023-11-19T00:17:39;1.10;;;1.00;;
7375;SDS011;3728;42.266;24.944;2023-11-19T00:20:07;1.33;;;1.23;;
7375;SDS011;3728;42.266;24.944;2023-11-19T00:22:38;1.23;;;1.10;;
7375;SDS011;3728;42.266;24.944;2023-11-19T00:25:15;1.20;;;1.20;;
7375;SDS011;3728;42.266;24.944;2023-11-19T00:27:42;0.80;;;0.80;;
7375;SDS011;3728;42.266;24.944;2023-11-19T00:30:11;1.07;;;0.90;;
7375;SDS011;3728;42.266;24.944;2023-11-19T00:32:42;1.00;;;1.00;;
7375;SDS011;3728;42.266;24.944;2023-11-19T00:35:10;2.10;;;1.53;;
7375;SDS011;3728;42.266;24.944;2023-11-19T00:37:40;1.03;;;1.03;;
7375;SDS011;3728;42.266;24.944;2023-11-19T00:40:09;1.10;;;1.00;;
7375;SDS011;3728;42.266;24.944;2023-11-19T00:42:38;1.40;;;1.30;;
7375;SDS011;3728;42.266;24.944;2023-11-19T00:45:05;1.10;;;1.10;;
7375;SDS011;3728;42.266;24.944;2023-11-19T00:47:36;0.87;;;0.87;;
7375;SDS011;3728;42.266;24.944;2023-11-19T00:50:03;0.87;;;0.87;;
7375;SDS011;3728;42.266;24.944;2023-11-19T00:52:31;1.10;;;1.00;;
7375;SDS011;3728;42.266;24.944;2023-11-19T00:54:58;1.13;;;1.13;;
7375;SDS011;3728;42.266;24.944;2023-11-19T00:57:26;1.10;;;1.00;;
7375;SDS011;3728;42.266;24.944;2023-11-19T00:59:53;0.90;;;0.90;;
7375;SDS011;3728;42.266;24.944;2023-11-19T01:02:21;1.47;;;1.00;;
7375;SDS011;3728;42.266;24.944;2023-11-19T01:04:48;1.33;;;1.23;;
7375;SDS011;3728;42.266;24.944;2023-11-19T01:07:15;0.90;;;0.90;;
7375;SDS011;3728;42.266;24.944;2023-11-19T01:09:43;0.80;;;0.80;;
7375;SDS011;3728;42.266;24.944;2023-11-19T01:12:10;0.80;;;0.80;;
7375;SDS011;3728;42.266;24.944;2023-11-19T01:14:37;1.43;;;1.10;;
7375;SDS011;3728;42.266;24.944;2023-11-19T01:17:05;0.90;;;0.90;;
7375;SDS011;3728;42.266;24.944;2023-11-19T01:19:34;2.00;;;1.10;;
7375;SDS011;3728;42.266;24.944;2023-11-19T01:22:01;1.33;;;1.13;;
7375;SDS011;3728;42.266;24.944;2023-11-19T01:24:28;1.10;;;1.00;;
7375;SDS011;3728;42.266;24.944;2023-11-19T01:26:57;0.87;;;0.87;;
7375;SDS011;3728;42.266;24.944;2023-11-19T01:29:26;0.87;;;0.87;;
7375;SDS011;3728;42.266;24.944;2023-11-19T01:31:54;0.90;;;0.90;;
7375;SDS011;3728;42.266;24.944;2023-11-19T01:34:21;0.83;;;0.83;;
7375;SDS011;3728;42.266;24.944;2023-11-19T01:36:49;1.00;;;1.00;;
7375;SDS011;3728;42.266;24.944;2023-11-19T01:39:16;1.30;;;1.10;;
7375;SDS011;3728;42.266;24.944;2023-11-19T01:41:43;0.90;;;0.90;;
7375;SDS011;3728;42.266;24.944;2023-11-19T01:44:11;1.00;;;1.00;;
7375;SDS011;3728;42.266;24.944;2023-11-19T01:46:43;0.90;;;0.90;;
7375;SDS011;3728;42.266;24.944;2023-11-19T01:49:12;1.33;;;1.10;;
7375;SDS011;3728;42.266;24.944;2023-11-19T01:51:41;1.13;;;1.10;;
7375;SDS011;3728;42.266;24.944;2023-11-19T01:54:09;1.00;;;1.00;;
7375;SDS011;3728;42.266;24.944;2023-11-19T01:56:38;1.13;;;1.03;;
7375;SDS011;3728;42.266;24.944;2023-11-19T01:59:08;0.90;;;0.90;;
7375;SDS011;3728;42.266;24.944;2023-11-19T02:01:37;0.90;;;0.90;;
7375;SDS011;3728;42.266;24.944;2023-11-19T02:04:07;1.00;;;1.00;;
7375;SDS011;3728;42.266;24.944;2023-11-19T02:06:37;1.07;;;0.83;;
7375;SDS011;3728;42.266;24.944;2023-11-19T02:09:08;1.10;;;1.00;;
7375;SDS011;3728;42.266;24.944;2023-11-19T02:11:36;1.10;;;1.10;;
7375;SDS011;3728;42.266;24.944;2023-11-19T02:14:06;2.87;;;0.97;;
7375;SDS011;3728;42.266;24.944;2023-11-19T02:16:33;1.20;;;1.20;;
7375;SDS011;3728;42.266;24.944;2023-11-19T02:19:01;3.17;;;1.20;;
7375;SDS011;3728;42.266;24.944;2023-11-19T02:21:30;1.63;;;1.20;;
7375;SDS011;3728;42.266;24.944;2023-11-19T02:23:57;1.07;;;1.03;;
7375;SDS011;3728;42.266;24.944;2023-11-19T02:29:22;3.13;;;1.43;;
7375;SDS011;3728;42.266;24.944;2023-11-19T02:31:50;2.23;;;1.70;;
7375;SDS011;3728;42.266;24.944;2023-11-19T02:34:17;1.40;;;1.30;;
7375;SDS011;3728;42.266;24.944;2023-11-19T02:36:44;1.30;;;1.20;;
7375;SDS011;3728;42.266;24.944;2023-11-19T02:39:13;1.10;;;1.10;;
7375;SDS011;3728;42.266;24.944;2023-11-19T02:41:41;1.27;;;1.20;;
7375;SDS011;3728;42.266;24.944;2023-11-19T02:44:08;1.00;;;1.00;;
7375;SDS011;3728;42.266;24.944;2023-11-19T02:46:36;3.40;;;1.23;;
7375;SDS011;3728;42.266;24.944;2023-11-19T02:49:03;1.30;;;1.20;;
7375;SDS011;3728;42.266;24.944;2023-11-19T02:51:30;1.13;;;1.13;;
7375;SDS011;3728;42.266;24.944;2023-11-19T02:53:58;3.43;;;1.10;;
7375;SDS011;3728;42.266;24.944;2023-11-19T02:56:25;2.50;;;1.10;;
7375;SDS011;3728;42.266;24.944;2023-11-19T02:58:53;1.40;;;1.30;;
7375;SDS011;3728;42.266;24.944;2023-11-19T03:01:21;1.73;;;1.07;;
7375;SDS011;3728;42.266;24.944;2023-11-19T03:03:59;1.10;;;1.00;;
7375;SDS011;3728;42.266;24.944;2023-11-19T03:06:30;2.20;;;2.00;;
7375;SDS011;3728;42.266;24.944;2023-11-19T03:08:57;1.30;;;1.20;;
7375;SDS011;3728;42.266;24.944;2023-11-19T03:11:24;1.53;;;1.20;;
7375;SDS011;3728;42.266;24.944;2023-11-19T03:13:52;1.43;;;1.33;;
7375;SDS011;3728;42.266;24.944;2023-11-19T03:16:19;1.50;;;1.40;;
7375;SDS011;3728;42.266;24.944;2023-11-19T03:18:46;1.10;;;1.10;;
7375;SDS011;3728;42.266;24.944;2023-11-19T03:21:14;1.30;;;1.20;;
7375;SDS011;3728;42.266;24.944;2023-11-19T03:23:41;1.20;;;1.20;;
7375;SDS011;3728;42.266;24.944;2023-11-19T03:26:12;1.20;;;1.10;;
7375;SDS011;3728;42.266;24.944;2023-11-19T03:28:40;1.23;;;1.23;;
7375;SDS011;3728;42.266;24.944;2023-11-19T03:31:07;1.30;;;1.20;;
7375;SDS011;3728;42.266;24.944;2023-11-19T03:33:35;1.60;;;1.30;;
7375;SDS011;3728;42.266;24.944;2023-11-19T03:36:04;1.73;;;1.63;;
7375;SDS011;3728;42.266;24.944;2023-11-19T03:38:32;1.60;;;1.50;;
7375;SDS011;3728;42.266;24.944;2023-11-19T03:41:00;1.43;;;1.30;;
7375;SDS011;3728;42.266;24.944;2023-11-19T03:43:27;1.13;;;1.03;;
7375;SDS011;3728;42.266;24.944;2023-11-19T03:45:54;1.30;;;1.20;;
7375;SDS011;3728;42.266;24.944;2023-11-19T03:48:22;1.60;;;1.50;;
7375;SDS011;3728;42.266;24.944;2023-11-19T03:50:49;1.40;;;1.30;;
7375;SDS011;3728;42.266;24.944;2023-11-19T03:53:16;1.50;;;1.40;;
7375;SDS011;3728;42.266;24.944;2023-11-19T03:55:45;1.60;;;1.50;;
7375;SDS011;3728;42.266;24.944;2023-11-19T03:58:12;2.70;;;1.50;;
7375;SDS011;3728;42.266;24.944;2023-11-19T04:00:40;1.60;;;1.50;;
7375;SDS011;3728;42.266;24.944;2023-11-19T04:03:07;2.60;;;2.27;;
7375;SDS011;3728;42.266;24.944;2023-11-19T04:05:35;5.40;;;3.80;;
7375;SDS011;3728;42.266;24.944;2023-11-19T04:08:03;3.67;;;2.83;;
7375;SDS011;3728;42.266;24.944;2023-11-19T04:10:30;6.10;;;5.43;;
7375;SDS011;3728;42.266;24.944;2023-11-19T04:12:58;4.23;;;2.17;;
7375;SDS011;3728;42.266;24.944;2023-11-19T04:15:25;2.87;;;1.90;;
7375;SDS011;3728;42.266;24.944;2023-11-19T04:17:53;2.70;;;2.10;;
7375;SDS011;3728;42.266;24.944;2023-11-19T04:20:20;3.57;;;2.30;;
7375;SDS011;3728;42.266;24.944;2023-11-19T04:22:49;2.10;;;1.90;;
7375;SDS011;3728;42.266;24.944;2023-11-19T04:25:18;2.10;;;1.70;;
7375;SDS011;3728;42.266;24.944;2023-11-19T04:27:46;2.17;;;1.97;;
7375;SDS011;3728;42.266;24.944;2023-11-19T04:30:14;1.97;;;1.87;;
7375;SDS011;3728;42.266;24.944;2023-11-19T04:32:42;1.80;;;1.70;;
7375;SDS011;3728;42.266;24.944;2023-11-19T04:35:09;1.90;;;1.80;;
7375;SDS011;3728;42.266;24.944;2023-11-19T04:37:37;1.93;;;1.80;;
7375;SDS011;3728;42.266;24.944;2023-11-19T04:40:05;3.90;;;1.87;;
7375;SDS011;3728;42.266;24.944;2023-11-19T04:42:36;1.90;;;1.80;;
7375;SDS011;3728;42.266;24.944;2023-11-19T04:45:04;2.10;;;1.90;;
7375;SDS011;3728;42.266;24.944;2023-11-19T04:47:33;4.07;;;2.07;;
7375;SDS011;3728;42.266;24.944;2023-11-19T04:50:01;3.03;;;1.97;;
7375;SDS011;3728;42.266;24.944;2023-11-19T04:52:28;1.90;;;1.80;;
7375;SDS011;3728;42.266;24.944;2023-11-19T04:54:56;2.17;;;2.00;;
7375;SDS011;3728;42.266;24.944;2023-11-19T04:57:23;2.20;;;2.00;;
7375;SDS011;3728;42.266;24.944;2023-11-19T04:59:50;6.57;;;3.50;;
7375;SDS011;3728;42.266;24.944;2023-11-19T05:02:18;1.90;;;1.80;;
7375;SDS011;3728;42.266;24.944;2023-11-19T05:04:45;2.13;;;1.93;;
7375;SDS011;3728;42.266;24.944;2023-11-19T05:07:13;2.30;;;1.80;;
7375;SDS011;3728;42.266;24.944;2023-11-19T05:09:41;2.20;;;2.00;;
7375;SDS011;3728;42.266;24.944;2023-11-19T05:12:09;2.83;;;2.20;;
7375;SDS011;3728;42.266;24.944;2023-11-19T05:14:38;2.33;;;2.13;;
7375;SDS011;3728;42.266;24.944;2023-11-19T05:17:06;2.63;;;2.43;;
7375;SDS011;3728;42.266;24.944;2023-11-19T05:19:34;3.00;;;2.23;;
7375;SDS011;3728;42.266;24.944;2023-11-19T05:22:01;2.57;;;2.37;;
7375;SDS011;3728;42.266;24.944;2023-11-19T05:24:29;2.13;;;2.03;;
7375;SDS011;3728;42.266;24.944;2023-11-19T05:26:58;2.87;;;2.20;;
7375;SDS011;3728;42.266;24.944;2023-11-19T05:29:26;2.87;;;2.50;;
7375;SDS011;3728;42.266;24.944;2023-11-19T05:31:54;3.07;;;2.40;;
7375;SDS011;3728;42.266;24.944;2023-11-19T05:34:21;6.57;;;2.30;;
7375;SDS011;3728;42.266;24.944;2023-11-19T05:36:49;2.77;;;2.43;;
7375;SDS011;3728;42.266;24.944;2023-11-19T05:39:17;5.30;;;3.03;;
7375;SDS011;3728;42.266;24.944;2023-11-19T05:41:48;4.10;;;2.87;;
7375;SDS011;3728;42.266;24.944;2023-11-19T05:44:16;2.43;;;1.73;;
7375;SDS011;3728;42.266;24.944;2023-11-19T05:46:45;3.37;;;2.00;;
7375;SDS011;3728;42.266;24.944;2023-11-19T05:49:12;2.33;;;2.13;;
7375;SDS011;3728;42.266;24.944;2023-11-19T05:51:41;3.13;;;2.00;;
7375;SDS011;3728;42.266;24.944;2023-11-19T05:54:08;4.73;;;2.63;;
7375;SDS011;3728;42.266;24.944;2023-11-19T05:56:37;2.27;;;1.87;;
7375;SDS011;3728;42.266;24.944;2023-11-19T05:59:05;2.57;;;2.37;;
7375;SDS011;3728;42.266;24.944;2023-11-19T06:01:41;4.37;;;2.20;;
7375;SDS011;3728;42.266;24.944;2023-11-19T06:04:09;6.63;;;2.43;;
7375;SDS011;3728;42.266;24.944;2023-11-19T06:06:39;8.70;;;2.80;;
7375;SDS011;3728;42.266;24.944;2023-11-19T06:09:07;2.20;;;2.00;;
7375;SDS011;3728;42.266;24.944;2023-11-19T06:11:38;2.20;;;2.00;;
7375;SDS011;3728;42.266;24.944;2023-11-19T06:14:06;2.27;;;2.07;;
7375;SDS011;3728;42.266;24.944;2023-11-19T06:16:33;2.27;;;2.13;;
7375;SDS011;3728;42.266;24.944;2023-11-19T06:19:03;2.40;;;2.20;;
7375;SDS011;3728;42.266;24.944;2023-11-19T06:21:31;2.93;;;2.40;;
7375;SDS011;3728;42.266;24.944;2023-11-19T06:23:58;2.57;;;1.93;;
7375;SDS011;3728;42.266;24.944;2023-11-19T06:26:26;3.47;;;2.47;;
7375;SDS011;3728;42.266;24.944;2023-11-19T06:28:54;2.13;;;1.93;;
7375;SDS011;3728;42.266;24.944;2023-11-19T06:31:21;3.00;;;1.93;;
7375;SDS011;3728;42.266;24.944;2023-11-19T06:33:49;3.07;;;2.47;;
7375;SDS011;3728;42.266;24.944;2023-11-19T06:36:16;3.27;;;2.90;;
7375;SDS011;3728;42.266;24.944;2023-11-19T06:38:44;3.63;;;3.00;;
7375;SDS011;3728;42.266;24.944;2023-11-19T06:41:11;8.67;;;3.17;;
7375;SDS011;3728;42.266;24.944;2023-11-19T06:43:39;6.20;;;4.20;;
7375;SDS011;3728;42.266;24.944;2023-11-19T06:46:15;3.13;;;2.20;;
7375;SDS011;3728;42.266;24.944;2023-11-19T06:48:43;2.07;;;1.87;;
7375;SDS011;3728;42.266;24.944;2023-11-19T06:51:12;2.20;;;2.00;;
7375;SDS011;3728;42.266;24.944;2023-11-19T06:53:39;2.07;;;1.70;;
7375;SDS011;3728;42.266;24.944;2023-11-19T06:56:22;2.20;;;1.80;;
7375;SDS011;3728;42.266;24.944;2023-11-19T06:58:51;3.30;;;3.00;;
7375;SDS011;3728;42.266;24.944;2023-11-19T07:01:19;3.90;;;2.93;;
7375;SDS011;3728;42.266;24.944;2023-11-19T07:03:47;2.30;;;2.10;;
7375;SDS011;3728;42.266;24.944;2023-11-19T07:06:16;2.47;;;2.20;;
7375;SDS011;3728;42.266;24.944;2023-11-19T07:08:44;4.73;;;2.80;;
7375;SDS011;3728;42.266;24.944;2023-11-19T07:11:15;3.57;;;3.23;;
7375;SDS011;3728;42.266;24.944;2023-11-19T07:13:44;5.50;;;4.50;;
7375;SDS011;3728;42.266;24.944;2023-11-19T07:16:14;4.90;;;3.10;;
7375;SDS011;3728;42.266;24.944;2023-11-19T07:18:43;4.20;;;2.83;;
7375;SDS011;3728;42.266;24.944;2023-11-19T07:21:11;2.80;;;2.60;;
7375;SDS011;3728;42.266;24.944;2023-11-19T07:23:38;2.37;;;2.17;;
7375;SDS011;3728;42.266;24.944;2023-11-19T07:26:08;5.47;;;4.00;;
7375;SDS011;3728;42.266;24.944;2023-11-19T07:28:36;2.93;;;2.60;;
7375;SDS011;3728;42.266;24.944;2023-11-19T07:31:03;4.37;;;2.80;;
7375;SDS011;3728;42.266;24.944;2023-11-19T07:33:34;2.77;;;2.57;;
7375;SDS011;3728;42.266;24.944;2023-11-19T07:36:02;3.77;;;2.87;;
7375;SDS011;3728;42.266;24.944;2023-11-19T07:38:32;3.80;;;3.10;;
7375;SDS011;3728;42.266;24.944;2023-11-19T07:41:00;3.73;;;2.70;;
7375;SDS011;3728;42.266;24.944;2023-11-19T07:43:27;3.47;;;2.60;;
7375;SDS011;3728;42.266;24.944;2023-11-19T07:45:55;2.93;;;2.67;;
7375;SDS011;3728;42.266;24.944;2023-11-19T07:48:22;3.27;;;2.50;;
7375;SDS011;3728;42.266;24.944;2023-11-19T07:50:51;4.13;;;1.90;;
7375;SDS011;3728;42.266;24.944;2023-11-19T07:53:19;2.57;;;2.07;;
7375;SDS011;3728;42.266;24.944;2023-11-19T07:55:47;2.30;;;2.10;;
7375;SDS011;3728;42.266;24.944;2023-11-19T07:58:15;6.23;;;3.80;;
7375;SDS011;3728;42.266;24.944;2023-11-19T08:00:42;2.93;;;2.37;;
7375;SDS011;3728;42.266;24.944;2023-11-19T08:03:11;3.50;;;2.83;;
7375;SDS011;3728;42.266;24.944;2023-11-19T08:05:39;3.70;;;2.60;;
7375;SDS011;3728;42.266;24.944;2023-11-19T08:08:08;3.83;;;3.03;;
7375;SDS011;3728;42.266;24.944;2023-11-19T08:10:35;3.97;;;3.27;;
7375;SDS011;3728;42.266;24.944;2023-11-19T08:13:03;2.60;;;2.40;;
7375;SDS011;3728;42.266;24.944;2023-11-19T08:15:31;4.00;;;2.37;;
7375;SDS011;3728;42.266;24.944;2023-11-19T08:17:59;3.57;;;3.00;;
7375;SDS011;3728;42.266;24.944;2023-11-19T08:20:29;5.30;;;3.30;;
7375;SDS011;3728;42.266;24.944;2023-11-19T08:22:59;9.20;;;5.43;;
7375;SDS011;3728;42.266;24.944;2023-11-19T08:25:29;9.03;;;5.63;;
7375;SDS011;3728;42.266;24.944;2023-11-19T08:27:56;8.53;;;3.70;;
7375;SDS011;3728;42.266;24.944;2023-11-19T08:30:24;3.00;;;2.63;;
7375;SDS011;3728;42.266;24.944;2023-11-19T08:32:51;3.30;;;2.30;;
7375;SDS011;3728;42.266;24.944;2023-11-19T08:35:19;2.73;;;2.40;;
7375;SDS011;3728;42.266;24.944;2023-11-19T08:37:46;2.50;;;2.30;;
7375;SDS011;3728;42.266;24.944;2023-11-19T08:40:13;2.40;;;2.20;;
7375;SDS011;3728;42.266;24.944;2023-11-19T08:42:41;2.53;;;2.33;;
7375;SDS011;3728;42.266;24.944;2023-11-19T08:45:09;5.43;;;2.40;;
7375;SDS011;3728;42.266;24.944;2023-11-19T08:47:37;6.20;;;4.40;;
7375;SDS011;3728;42.266;24.944;2023-11-19T08:50:07;5.20;;;2.33;;
7375;SDS011;3728;42.266;24.944;2023-11-19T08:52:37;3.57;;;2.40;;
7375;SDS011;3728;42.266;24.944;2023-11-19T08:55:08;9.57;;;2.63;;
7375;SDS011;3728;42.266;24.944;2023-11-19T08:57:38;3.37;;;2.50;;
7375;SDS011;3728;42.266;24.944;2023-11-19T09:00:06;5.03;;;2.53;;
7375;SDS011;3728;42.266;24.944;2023-11-19T09:02:37;3.37;;;2.70;;
7375;SDS011;3728;42.266;24.944;2023-11-19T09:05:06;2.90;;;2.30;;
7375;SDS011;3728;42.266;24.944;2023-11-19T09:07:40;2.57;;;2.30;;
7375;SDS011;3728;42.266;24.944;2023-11-19T09:10:08;2.00;;;1.90;;
7375;SDS011;3728;42.266;24.944;2023-11-19T09:12:37;2.60;;;2.40;;
7375;SDS011;3728;42.266;24.944;2023-11-19T09:15:08;4.80;;;3.20;;
7375;SDS011;3728;42.266;24.944;2023-11-19T09:17:40;6.30;;;3.43;;
7375;SDS011;3728;42.266;24.944;2023-11-19T09:20:09;7.57;;;4.07;;
7375;SDS011;3728;42.266;24.944;2023-11-19T09:22:40;24.73;;;9.90;;
7375;SDS011;3728;42.266;24.944;2023-11-19T09:25:08;28.93;;;11.87;;
7375;SDS011;3728;42.266;24.944;2023-11-19T09:27:36;21.93;;;8.90;;
7375;SDS011;3728;42.266;24.944;2023-11-19T09:30:04;32.30;;;11.17;;
7375;SDS011;3728;42.266;24.944;2023-11-19T09:32:32;32.70;;;10.63;;
7375;SDS011;3728;42.266;24.944;2023-11-19T09:35:01;18.57;;;7.00;;
7375;SDS011;3728;42.266;24.944;2023-11-19T09:37:29;20.90;;;6.90;;
7375;SDS011;3728;42.266;24.944;2023-11-19T09:39:57;8.30;;;3.87;;
7375;SDS011;3728;42.266;24.944;2023-11-19T09:42:24;5.17;;;2.97;;
7375;SDS011;3728;42.266;24.944;2023-11-19T09:44:53;5.00;;;2.33;;
7375;SDS011;3728;42.266;24.944;2023-11-19T09:47:23;6.60;;;3.10;;
7375;SDS011;3728;42.266;24.944;2023-11-19T09:54:20;12.70;;;6.87;;
7375;SDS011;3728;42.266;24.944;2023-11-19T09:56:47;6.03;;;3.03;;
7375;SDS011;3728;42.266;24.944;2023-11-19T09:59:15;4.77;;;2.73;;
7375;SDS011;3728;42.266;24.944;2023-11-19T10:01:45;4.23;;;3.07;;
7375;SDS011;3728;42.266;24.944;2023-11-19T10:04:14;4.87;;;3.10;;
7375;SDS011;3728;42.266;24.944;2023-11-19T10:06:43;3.13;;;2.70;;
7375;SDS011;3728;42.266;24.944;2023-11-19T10:09:11;4.13;;;3.03;;
7375;SDS011;3728;42.266;24.944;2023-11-19T10:11:43;2.80;;;2.50;;
7375;SDS011;3728;42.266;24.944;2023-11-19T10:14:10;2.93;;;2.70;;
7375;SDS011;3728;42.266;24.944;2023-11-19T10:16:40;3.10;;;2.40;;
7375;SDS011;3728;42.266;24.944;2023-11-19T10:19:07;2.83;;;2.40;;
7375;SDS011;3728;42.266;24.944;2023-11-19T10:21:39;2.63;;;2.40;;
7375;SDS011;3728;42.266;24.944;2023-11-19T10:24:07;3.30;;;2.10;;
7375;SDS011;3728;42.266;24.944;2023-11-19T10:26:35;3.53;;;2.03;;
7375;SDS011;3728;42.266;24.944;2023-11-19T10:29:04;5.57;;;2.37;;
7375;SDS011;3728;42.266;24.944;2023-11-19T10:31:31;5.87;;;2.57;;
7375;SDS011;3728;42.266;24.944;2023-11-19T10:33:59;3.13;;;2.90;;
7375;SDS011;3728;42.266;24.944;2023-11-19T10:36:38;2.50;;;2.30;;
7375;SDS011;3728;42.266;24.944;2023-11-19T10:39:10;2.83;;;2.00;;
7375;SDS011;3728;42.266;24.944;2023-11-19T10:41:38;3.47;;;2.23;;
7375;SDS011;3728;42.266;24.944;2023-11-19T10:44:05;2.93;;;2.37;;
7375;SDS011;3728;42.266;24.944;2023-11-19T10:46:39;2.70;;;2.50;;
7375;SDS011;3728;42.266;24.944;2023-11-19T10:49:08;2.33;;;2.00;;
7375;SDS011;3728;42.266;24.944;2023-11-19T10:51:41;2.27;;;2.07;;
7375;SDS011;3728;42.266;24.944;2023-11-19T10:54:13;2.87;;;2.33;;
7375;SDS011;3728;42.266;24.944;2023-11-19T10:56:49;6.00;;;4.00;;
7375;SDS011;3728;42.266;24.944;2023-11-19T10:59:29;9.23;;;5.53;;
7375;SDS011;3728;42.266;24.944;2023-11-19T11:02:00;3.23;;;2.40;;
7375;SDS011;3728;42.266;24.944;2023-11-19T11:04:37;4.23;;;3.30;;
7375;SDS011;3728;42.266;24.944;2023-11-19T11:07:08;2.40;;;2.20;;
7375;SDS011;3728;42.266;24.944;2023-11-19T11:09:38;5.07;;;3.67;;
7375;SDS011;3728;42.266;24.944;2023-11-19T11:12:07;8.10;;;6.13;;
7375;SDS011;3728;42.266;24.944;2023-11-19T11:14:37;6.93;;;5.33;;
7375;SDS011;3728;42.266;24.944;2023-11-19T11:17:07;8.30;;;5.97;;
7375;SDS011;3728;42.266;24.944;2023-11-19T11:19:36;4.60;;;3.20;;
7375;SDS011;3728;42.266;24.944;2023-11-19T11:22:05;5.30;;;3.53;;
7375;SDS011;3728;42.266;24.944;2023-11-19T11:25:11;4.97;;;3.80;;
7375;SDS011;3728;42.266;24.944;2023-11-19T11:36:16;9.13;;;5.87;;
7375;SDS011;3728;42.266;24.944;2023-11-19T11:38:47;10.00;;;4.73;;
7375;SDS011;3728;42.266;24.944;2023-11-19T11:41:20;2.77;;;2.37;;
7375;SDS011;3728;42.266;24.944;2023-11-19T11:43:55;2.80;;;2.60;;
7375;SDS011;3728;42.266;24.944;2023-11-19T11:49:05;4.93;;;3.37;;
7375;SDS011;3728;42.266;24.944;2023-11-19T11:57:03;4.17;;;2.60;;
7375;SDS011;3728;42.266;24.944;2023-11-19T12:02:12;3.80;;;3.50;;
7375;SDS011;3728;42.266;24.944;2023-11-19T12:04:40;3.33;;;2.67;;
7375;SDS011;3728;42.266;24.944;2023-11-19T12:07:12;3.67;;;2.80;;
7375;SDS011;3728;42.266;24.944;2023-11-19T12:10:24;3.20;;;2.90;;
7375;SDS011;3728;42.266;24.944;2023-11-19T12:12:37;3.53;;;2.40;;
7375;SDS011;3728;42.266;24.944;2023-11-19T12:15:07;2.70;;;2.50;;
7375;SDS011;3728;42.266;24.944;2023-11-19T12:17:37;4.60;;;2.80;;
7375;SDS011;3728;42.266;24.944;2023-11-19T12:20:19;3.00;;;2.70;;
7375;SDS011;3728;42.266;24.944;2023-11-19T12:22:55;3.57;;;3.27;;
7375;SDS011;3728;42.266;24.944;2023-11-19T12:25:23;5.43;;;2.97;;
7375;SDS011;3728;42.266;24.944;2023-11-19T12:27:52;4.30;;;3.17;;
7375;SDS011;3728;42.266;24.944;2023-11-19T12:30:23;3.17;;;2.87;;
7375;SDS011;3728;42.266;24.944;2023-11-19T12:32:53;3.90;;;2.93;;
7375;SDS011;3728;42.266;24.944;2023-11-19T12:35:22;3.93;;;3.37;;
7375;SDS011;3728;42.266;24.944;2023-11-19T12:37:51;2.87;;;2.67;;
7375;SDS011;3728;42.266;24.944;2023-11-19T12:40:23;2.97;;;2.70;;
7375;SDS011;3728;42.266;24.944;2023-11-19T12:42:52;2.83;;;2.57;;
7375;SDS011;3728;42.266;24.944;2023-11-19T12:45:21;3.10;;;2.80;;
7375;SDS011;3728;42.266;24.944;2023-11-19T12:48:04;3.53;;;3.20;;
7375;SDS011;3728;42.266;24.944;2023-11-19T12:53:24;3.20;;;2.90;;
7375;SDS011;3728;42.266;24.944;2023-11-19T12:55:55;5.83;;;3.13;;
7375;SDS011;3728;42.266;24.944;2023-11-19T12:58:35;2.67;;;2.47;;
7375;SDS011;3728;42.266;24.944;2023-11-19T13:01:03;3.03;;;2.80;;
7375;SDS011;3728;42.266;24.944;2023-11-19T13:03:35;6.73;;;2.90;;
7375;SDS011;3728;42.266;24.944;2023-11-19T13:06:06;3.20;;;2.73;;
7375;SDS011;3728;42.266;24.944;2023-11-19T13:08:47;3.37;;;3.07;;
7375;SDS011;3728;42.266;24.944;2023-11-19T13:11:32;4.00;;;3.57;;
7375;SDS011;3728;42.266;24.944;2023-11-19T13:14:04;5.33;;;3.47;;
7375;SDS011;3728;42.266;24.944;2023-11-19T13:16:36;4.13;;;3.70;;
7375;SDS011;3728;42.266;24.944;2023-11-19T13:19:05;4.20;;;3.13;;
7375;SDS011;3728;42.266;24.944;2023-11-19T13:21:34;4.43;;;3.23;;
7375;SDS011;3728;42.266;24.944;2023-11-19T13:24:02;5.00;;;3.43;;
7375;SDS011;3728;42.266;24.944;2023-11-19T13:26:29;3.63;;;3.33;;
7375;SDS011;3728;42.266;24.944;2023-11-19T13:28:57;3.43;;;2.83;;
7375;SDS011;3728;42.266;24.944;2023-11-19T13:31:24;3.17;;;2.80;;
7375;SDS011;3728;42.266;24.944;2023-11-19T13:33:52;2.47;;;2.27;;
7375;SDS011;3728;42.266;24.944;2023-11-19T13:36:20;3.07;;;2.77;;
7375;SDS011;3728;42.266;24.944;2023-11-19T13:38:47;4.43;;;2.43;;
7375;SDS011;3728;42.266;24.944;2023-11-19T13:41:15;3.57;;;2.50;;
7375;SDS011;3728;42.266;24.944;2023-11-19T13:43:45;3.70;;;2.47;;
7375;SDS011;3728;42.266;24.944;2023-11-19T13:46:12;3.47;;;3.17;;
7375;SDS011;3728;42.266;24.944;2023-11-19T13:48:39;3.53;;;3.00;;
7375;SDS011;3728;42.266;24.944;2023-11-19T13:51:07;5.23;;;3.27;;
7375;SDS011;3728;42.266;24.944;2023-11-19T13:53:37;3.77;;;2.67;;
7375;SDS011;3728;42.266;24.944;2023-11-19T13:56:07;3.00;;;2.70;;
7375;SDS011;3728;42.266;24.944;2023-11-19T13:58:35;6.37;;;2.90;;
7375;SDS011;3728;42.266;24.944;2023-11-19T14:01:03;4.27;;;3.00;;
7375;SDS011;3728;42.266;24.944;2023-11-19T14:03:31;3.30;;;2.90;;
7375;SDS011;3728;42.266;24.944;2023-11-19T14:06:00;3.40;;;3.03;;
7375;SDS011;3728;42.266;24.944;2023-11-19T14:08:28;13.37;;;7.57;;
7375;SDS011;3728;42.266;24.944;2023-11-19T14:10:56;4.77;;;4.17;;
7375;SDS011;3728;42.266;24.944;2023-11-19T14:13:24;6.77;;;4.77;;
7375;SDS011;3728;42.266;24.944;2023-11-19T14:15:52;3.47;;;3.17;;
7375;SDS011;3728;42.266;24.944;2023-11-19T14:18:20;4.30;;;3.90;;
7375;SDS011;3728;42.266;24.944;2023-11-19T14:20:47;3.03;;;2.73;;
7375;SDS011;3728;42.266;24.944;2023-11-19T14:23:15;2.87;;;2.67;;
7375;SDS011;3728;42.266;24.944;2023-11-19T14:25:43;2.93;;;2.73;;
7375;SDS011;3728;42.266;24.944;2023-11-19T14:28:11;2.40;;;2.20;;
7375;SDS011;3728;42.266;24.944;2023-11-19T14:30:38;2.87;;;2.50;;
7375;SDS011;3728;42.266;24.944;2023-11-19T14:33:08;3.10;;;2.80;;
7375;SDS011;3728;42.266;24.944;2023-11-19T14:35:35;3.67;;;3.20;;
7375;SDS011;3728;42.266;24.944;2023-11-19T14:38:03;3.40;;;3.10;;
7375;SDS011;3728;42.266;24.944;2023-11-19T14:40:35;2.40;;;2.20;;
7375;SDS011;3728;42.266;24.944;2023-11-19T14:43:06;2.47;;;2.27;;
7375;SDS011;3728;42.266;24.944;2023-11-19T14:45:37;2.67;;;2.47;;
7375;SDS011;3728;42.266;24.944;2023-11-19T14:48:15;3.53;;;3.23;;
7375;SDS011;3728;42.266;24.944;2023-11-19T14:50:52;7.40;;;5.30;;
7375;SDS011;3728;42.266;24.944;2023-11-19T14:53:19;7.10;;;5.37;;
7375;SDS011;3728;42.266;24.944;2023-11-19T14:55:47;5.13;;;4.60;;
7375;SDS011;3728;42.266;24.944;2023-11-19T14:58:15;5.63;;;4.50;;
7375;SDS011;3728;42.266;24.944;2023-11-19T15:00:43;5.00;;;4.10;;
7375;SDS011;3728;42.266;24.944;2023-11-19T15:03:12;4.20;;;3.80;;
7375;SDS011;3728;42.266;24.944;2023-11-19T15:05:40;4.73;;;4.07;;
7375;SDS011;3728;42.266;24.944;2023-11-19T15:08:07;6.10;;;4.67;;
7375;SDS011;3728;42.266;24.944;2023-11-19T15:10:35;6.77;;;4.83;;
7375;SDS011;3728;42.266;24.944;2023-11-19T15:13:04;8.53;;;5.47;;
7375;SDS011;3728;42.266;24.944;2023-11-19T15:15:31;6.30;;;4.40;;
7375;SDS011;3728;42.266;24.944;2023-11-19T15:18:01;5.73;;;3.93;;
7375;SDS011;3728;42.266;24.944;2023-11-19T15:20:30;7.33;;;3.40;;
7375;SDS011;3728;42.266;24.944;2023-11-19T15:22:58;5.80;;;3.77;;
7375;SDS011;3728;42.266;24.944;2023-11-19T15:25:25;5.37;;;3.77;;
7375;SDS011;3728;42.266;24.944;2023-11-19T15:27:55;9.43;;;5.67;;
7375;SDS011;3728;42.266;24.944;2023-11-19T15:30:24;14.20;;;7.20;;
7375;SDS011;3728;42.266;24.944;2023-11-19T15:32:52;12.93;;;6.70;;
7375;SDS011;3728;42.266;24.944;2023-11-19T15:35:25;11.03;;;5.73;;
7375;SDS011;3728;42.266;24.944;2023-11-19T15:37:53;10.53;;;4.90;;
7375;SDS011;3728;42.266;24.944;2023-11-19T15:40:25;5.73;;;3.90;;